sensor_id;sensor_type;location;lat;lon;timestamp;P1;durP1;ratioP1;P2;durP2;ratioP2
2161;SDS011;1087;50.226;8.682;2023-04-03T00:01:01;3.33;;;2.10;;
2161;SDS011;1087;50.226;8.682;2023-04-03T00:03:26;3.47;;;2.10;;
2161;SDS011;1087;50.226;8.682;2023-04-03T00:05:52;2.50;;;2.00;;
2161;SDS011;1087;50.226;8.682;2023-04-03T00:08:18;2.10;;;1.90;;
2161;SDS011;1087;50.226;8.682;2023-04-03T00:10:44;1.93;;;1.83;;
2161;SDS011;1087;50.226;8.682;2023-04-03T00:13:10;2.33;;;1.90;;
2161;SDS011;1087;50.226;8.682;2023-04-03T00:15:36;2.63;;;2.13;;
2161;SDS011;1087;50.226;8.682;2023-04-03T00:18:02;2.10;;;1.50;;
2161;SDS011;1087;50.226;8.682;2023-04-03T00:20:28;2.40;;;1.80;;
2161;SDS011;1087;50.226;8.682;2023-04-03T00:22:54;1.80;;;1.70;;
2161;SDS011;1087;50.226;8.682;2023-04-03T00:25:20;2.00;;;1.90;;
2161;SDS011;1087;50.226;8.682;2023-04-03T00:27:46;2.90;;;1.97;;
2161;SDS011;1087;50.226;8.682;2023-04-03T00:30:13;2.60;;;1.93;;
2161;SDS011;1087;50.226;8.682;2023-04-03T00:32:40;4.00;;;2.10;;
2161;SDS011;1087;50.226;8.682;2023-04-03T00:35:06;1.97;;;1.77;;
2161;SDS011;1087;50.226;8.682;2023-04-03T00:37:32;2.10;;;1.60;;
2161;SDS011;1087;50.226;8.682;2023-04-03T00:39:58;3.00;;;1.87;;
2161;SDS011;1087;50.226;8.682;2023-04-03T00:42:23;3.07;;;2.00;;
2161;SDS011;1087;50.226;8.682;2023-04-03T00:47:17;3.40;;;2.00;;
2161;SDS011;1087;50.226;8.682;2023-04-03T00:49:43;3.37;;;2.20;;
2161;SDS011;1087;50.226;8.682;2023-04-03T00:52:11;2.80;;;2.20;;
2161;SDS011;1087;50.226;8.682;2023-04-03T00:54:41;2.27;;;2.00;;
2161;SDS011;1087;50.226;8.682;2023-04-03T00:57:08;2.30;;;2.10;;
2161;SDS011;1087;50.226;8.682;2023-04-03T00:59:37;5.33;;;1.80;;
2161;SDS011;1087;50.226;8.682;2023-04-03T01:02:06;3.07;;;2.87;;
2161;SDS011;1087;50.226;8.682;2023-04-03T01:07:09;2.17;;;1.87;;
2161;SDS011;1087;50.226;8.682;2023-04-03T01:09:43;2.63;;;1.90;;
2161;SDS011;1087;50.226;8.682;2023-04-03T01:12:22;2.40;;;1.80;;
2161;SDS011;1087;50.226;8.682;2023-04-03T01:14:53;2.93;;;2.27;;
2161;SDS011;1087;50.226;8.682;2023-04-03T01:17:43;2.20;;;1.70;;
2161;SDS011;1087;50.226;8.682;2023-04-03T01:22:56;7.40;;;2.53;;
2161;SDS011;1087;50.226;8.682;2023-04-03T01:25:23;2.97;;;2.37;;
2161;SDS011;1087;50.226;8.682;2023-04-03T01:27:49;1.97;;;1.80;;
2161;SDS011;1087;50.226;8.682;2023-04-03T01:30:17;3.37;;;1.93;;
2161;SDS011;1087;50.226;8.682;2023-04-03T01:32:45;1.93;;;1.77;;
2161;SDS011;1087;50.226;8.682;2023-04-03T01:35:11;2.40;;;2.10;;
2161;SDS011;1087;50.226;8.682;2023-04-03T01:37:37;4.90;;;2.77;;
2161;SDS011;1087;50.226;8.682;2023-04-03T01:40:02;2.47;;;2.03;;
2161;SDS011;1087;50.226;8.682;2023-04-03T01:42:28;3.70;;;1.90;;
2161;SDS011;1087;50.226;8.682;2023-04-03T01:44:54;3.30;;;2.33;;
2161;SDS011;1087;50.226;8.682;2023-04-03T01:47:21;2.60;;;2.13;;
2161;SDS011;1087;50.226;8.682;2023-04-03T01:49:47;2.40;;;1.80;;
2161;SDS011;1087;50.226;8.682;2023-04-03T01:52:12;2.67;;;1.93;;
2161;SDS011;1087;50.226;8.682;2023-04-03T01:54:38;3.27;;;2.20;;
2161;SDS011;1087;50.226;8.682;2023-04-03T01:57:04;2.90;;;2.23;;
2161;SDS011;1087;50.226;8.682;2023-04-03T01:59:29;2.17;;;1.93;;
2161;SDS011;1087;50.226;8.682;2023-04-03T02:01:55;3.07;;;2.17;;
2161;SDS011;1087;50.226;8.682;2023-04-03T02:04:20;2.80;;;2.50;;
2161;SDS011;1087;50.226;8.682;2023-04-03T02:06:46;2.80;;;2.07;;
2161;SDS011;1087;50.226;8.682;2023-04-03T02:09:11;3.10;;;2.17;;
2161;SDS011;1087;50.226;8.682;2023-04-03T02:11:37;2.80;;;1.83;;
2161;SDS011;1087;50.226;8.682;2023-04-03T02:14:02;3.03;;;2.23;;
2161;SDS011;1087;50.226;8.682;2023-04-03T02:16:28;3.17;;;2.10;;
2161;SDS011;1087;50.226;8.682;2023-04-03T02:18:55;4.07;;;2.27;;
2161;SDS011;1087;50.226;8.682;2023-04-03T02:21:21;2.50;;;2.30;;
2161;SDS011;1087;50.226;8.682;2023-04-03T02:23:47;2.67;;;1.90;;
2161;SDS011;1087;50.226;8.682;2023-04-03T02:26:13;2.20;;;1.97;;
2161;SDS011;1087;50.226;8.682;2023-04-03T02:28:40;3.50;;;2.07;;
2161;SDS011;1087;50.226;8.682;2023-04-03T02:31:06;2.50;;;2.30;;
2161;SDS011;1087;50.226;8.682;2023-04-03T02:33:33;1.77;;;1.67;;
2161;SDS011;1087;50.226;8.682;2023-04-03T02:36:01;3.97;;;2.57;;
2161;SDS011;1087;50.226;8.682;2023-04-03T02:38:28;4.23;;;2.20;;
2161;SDS011;1087;50.226;8.682;2023-04-03T02:40:53;2.70;;;2.40;;
2161;SDS011;1087;50.226;8.682;2023-04-03T02:43:24;3.47;;;2.30;;
2161;SDS011;1087;50.226;8.682;2023-04-03T02:45:49;1.87;;;1.77;;
2161;SDS011;1087;50.226;8.682;2023-04-03T02:48:15;4.23;;;1.70;;
2161;SDS011;1087;50.226;8.682;2023-04-03T02:50:41;3.30;;;2.20;;
2161;SDS011;1087;50.226;8.682;2023-04-03T02:53:07;4.43;;;1.90;;
2161;SDS011;1087;50.226;8.682;2023-04-03T02:55:32;2.70;;;1.70;;
2161;SDS011;1087;50.226;8.682;2023-04-03T02:57:58;3.80;;;1.60;;
2161;SDS011;1087;50.226;8.682;2023-04-03T03:00:23;3.47;;;1.70;;
2161;SDS011;1087;50.226;8.682;2023-04-03T03:02:49;2.17;;;1.90;;
2161;SDS011;1087;50.226;8.682;2023-04-03T03:05:14;2.30;;;1.70;;
2161;SDS011;1087;50.226;8.682;2023-04-03T03:07:40;3.53;;;1.70;;
2161;SDS011;1087;50.226;8.682;2023-04-03T03:10:06;3.70;;;1.60;;
2161;SDS011;1087;50.226;8.682;2023-04-03T03:12:31;3.20;;;1.97;;
2161;SDS011;1087;50.226;8.682;2023-04-03T03:14:57;3.17;;;2.27;;
2161;SDS011;1087;50.226;8.682;2023-04-03T03:17:22;4.10;;;2.30;;
2161;SDS011;1087;50.226;8.682;2023-04-03T03:19:48;3.43;;;1.70;;
2161;SDS011;1087;50.226;8.682;2023-04-03T03:22:13;4.00;;;1.77;;
2161;SDS011;1087;50.226;8.682;2023-04-03T03:24:41;6.70;;;2.10;;
2161;SDS011;1087;50.226;8.682;2023-04-03T03:27:06;6.60;;;2.20;;
2161;SDS011;1087;50.226;8.682;2023-04-03T03:29:32;4.10;;;1.90;;
2161;SDS011;1087;50.226;8.682;2023-04-03T03:31:57;2.07;;;1.57;;
2161;SDS011;1087;50.226;8.682;2023-04-03T03:34:23;3.63;;;2.00;;
2161;SDS011;1087;50.226;8.682;2023-04-03T03:36:48;4.00;;;1.67;;
2161;SDS011;1087;50.226;8.682;2023-04-03T03:39:14;4.03;;;1.90;;
2161;SDS011;1087;50.226;8.682;2023-04-03T03:41:40;2.80;;;1.60;;
2161;SDS011;1087;50.226;8.682;2023-04-03T03:44:05;2.40;;;1.67;;
2161;SDS011;1087;50.226;8.682;2023-04-03T03:46:31;2.00;;;1.80;;
2161;SDS011;1087;50.226;8.682;2023-04-03T03:48:56;2.40;;;1.70;;
2161;SDS011;1087;50.226;8.682;2023-04-03T03:51:22;3.13;;;1.67;;
2161;SDS011;1087;50.226;8.682;2023-04-03T03:53:47;2.80;;;1.63;;
2161;SDS011;1087;50.226;8.682;2023-04-03T03:56:13;1.70;;;1.60;;
2161;SDS011;1087;50.226;8.682;2023-04-03T03:58:38;1.50;;;1.40;;
2161;SDS011;1087;50.226;8.682;2023-04-03T04:01:04;2.33;;;1.80;;
2161;SDS011;1087;50.226;8.682;2023-04-03T04:03:32;4.97;;;2.20;;
2161;SDS011;1087;50.226;8.682;2023-04-03T04:05:58;2.17;;;1.40;;
2161;SDS011;1087;50.226;8.682;2023-04-03T04:08:23;4.27;;;2.40;;
2161;SDS011;1087;50.226;8.682;2023-04-03T04:10:49;2.30;;;1.50;;
2161;SDS011;1087;50.226;8.682;2023-04-03T04:13:15;2.57;;;1.93;;
2161;SDS011;1087;50.226;8.682;2023-04-03T04:15:41;2.27;;;1.90;;
2161;SDS011;1087;50.226;8.682;2023-04-03T04:18:07;3.03;;;2.67;;
2161;SDS011;1087;50.226;8.682;2023-04-03T04:20:33;3.70;;;2.20;;
2161;SDS011;1087;50.226;8.682;2023-04-03T04:22:58;4.77;;;1.87;;
2161;SDS011;1087;50.226;8.682;2023-04-03T04:25:24;4.70;;;1.90;;
2161;SDS011;1087;50.226;8.682;2023-04-03T04:27:49;2.47;;;2.07;;
2161;SDS011;1087;50.226;8.682;2023-04-03T04:30:15;3.20;;;2.10;;
2161;SDS011;1087;50.226;8.682;2023-04-03T04:32:40;4.53;;;1.90;;
2161;SDS011;1087;50.226;8.682;2023-04-03T04:35:06;3.50;;;1.90;;
2161;SDS011;1087;50.226;8.682;2023-04-03T04:37:32;5.07;;;2.00;;
2161;SDS011;1087;50.226;8.682;2023-04-03T04:39:58;3.67;;;1.90;;
2161;SDS011;1087;50.226;8.682;2023-04-03T04:42:23;4.30;;;1.77;;
2161;SDS011;1087;50.226;8.682;2023-04-03T04:44:49;5.17;;;2.03;;
2161;SDS011;1087;50.226;8.682;2023-04-03T04:47:15;4.77;;;1.87;;
2161;SDS011;1087;50.226;8.682;2023-04-03T04:49:40;3.63;;;2.40;;
2161;SDS011;1087;50.226;8.682;2023-04-03T04:52:06;5.63;;;2.10;;
2161;SDS011;1087;50.226;8.682;2023-04-03T04:54:31;3.33;;;2.33;;
2161;SDS011;1087;50.226;8.682;2023-04-03T04:56:57;3.60;;;1.93;;
2161;SDS011;1087;50.226;8.682;2023-04-03T04:59:23;3.70;;;1.90;;
2161;SDS011;1087;50.226;8.682;2023-04-03T05:01:48;4.57;;;2.63;;
2161;SDS011;1087;50.226;8.682;2023-04-03T05:04:14;3.07;;;1.97;;
2161;SDS011;1087;50.226;8.682;2023-04-03T05:06:40;5.37;;;2.20;;
2161;SDS011;1087;50.226;8.682;2023-04-03T05:09:05;4.30;;;1.87;;
2161;SDS011;1087;50.226;8.682;2023-04-03T05:11:31;3.70;;;2.20;;
2161;SDS011;1087;50.226;8.682;2023-04-03T05:13:57;4.13;;;2.30;;
2161;SDS011;1087;50.226;8.682;2023-04-03T05:16:23;3.77;;;1.80;;
2161;SDS011;1087;50.226;8.682;2023-04-03T05:18:48;4.47;;;2.50;;
2161;SDS011;1087;50.226;8.682;2023-04-03T05:21:14;2.03;;;1.80;;
2161;SDS011;1087;50.226;8.682;2023-04-03T05:23:39;3.57;;;2.13;;
2161;SDS011;1087;50.226;8.682;2023-04-03T05:26:05;4.87;;;2.57;;
2161;SDS011;1087;50.226;8.682;2023-04-03T05:28:31;2.70;;;1.93;;
2161;SDS011;1087;50.226;8.682;2023-04-03T05:30:57;2.33;;;1.90;;
2161;SDS011;1087;50.226;8.682;2023-04-03T05:33:23;2.30;;;2.10;;
2161;SDS011;1087;50.226;8.682;2023-04-03T05:35:49;4.30;;;2.30;;
2161;SDS011;1087;50.226;8.682;2023-04-03T05:38:15;3.47;;;1.83;;
2161;SDS011;1087;50.226;8.682;2023-04-03T05:40:40;4.63;;;2.40;;
2161;SDS011;1087;50.226;8.682;2023-04-03T05:43:06;3.03;;;2.30;;
2161;SDS011;1087;50.226;8.682;2023-04-03T05:45:31;6.07;;;2.40;;
2161;SDS011;1087;50.226;8.682;2023-04-03T05:47:57;2.23;;;2.03;;
2161;SDS011;1087;50.226;8.682;2023-04-03T05:50:23;6.10;;;2.53;;
2161;SDS011;1087;50.226;8.682;2023-04-03T05:52:49;4.03;;;1.90;;
2161;SDS011;1087;50.226;8.682;2023-04-03T05:55:15;3.97;;;2.30;;
2161;SDS011;1087;50.226;8.682;2023-04-03T05:57:41;3.83;;;2.70;;
2161;SDS011;1087;50.226;8.682;2023-04-03T06:00:07;4.90;;;2.60;;
2161;SDS011;1087;50.226;8.682;2023-04-03T06:02:34;4.47;;;2.27;;
2161;SDS011;1087;50.226;8.682;2023-04-03T06:05:00;3.67;;;2.70;;
2161;SDS011;1087;50.226;8.682;2023-04-03T06:07:27;3.67;;;2.70;;
2161;SDS011;1087;50.226;8.682;2023-04-03T06:09:53;4.70;;;2.40;;
2161;SDS011;1087;50.226;8.682;2023-04-03T06:12:21;6.47;;;2.70;;
2161;SDS011;1087;50.226;8.682;2023-04-03T06:14:47;3.00;;;2.37;;
2161;SDS011;1087;50.226;8.682;2023-04-03T06:17:13;4.47;;;2.57;;
2161;SDS011;1087;50.226;8.682;2023-04-03T06:19:40;4.70;;;2.30;;
2161;SDS011;1087;50.226;8.682;2023-04-03T06:22:06;3.40;;;1.80;;
2161;SDS011;1087;50.226;8.682;2023-04-03T06:24:32;3.03;;;2.43;;
2161;SDS011;1087;50.226;8.682;2023-04-03T06:26:57;4.40;;;2.93;;
2161;SDS011;1087;50.226;8.682;2023-04-03T06:29:23;5.87;;;3.03;;
2161;SDS011;1087;50.226;8.682;2023-04-03T06:31:49;5.80;;;2.40;;
2161;SDS011;1087;50.226;8.682;2023-04-03T06:34:15;8.17;;;3.07;;
2161;SDS011;1087;50.226;8.682;2023-04-03T06:36:41;3.00;;;2.73;;
2161;SDS011;1087;50.226;8.682;2023-04-03T06:39:08;5.40;;;2.80;;
2161;SDS011;1087;50.226;8.682;2023-04-03T06:41:41;2.50;;;2.27;;
2161;SDS011;1087;50.226;8.682;2023-04-03T06:44:07;3.67;;;2.40;;
2161;SDS011;1087;50.226;8.682;2023-04-03T06:46:36;3.33;;;2.40;;
2161;SDS011;1087;50.226;8.682;2023-04-03T06:49:02;3.00;;;2.53;;
2161;SDS011;1087;50.226;8.682;2023-04-03T06:51:28;5.60;;;2.93;;
2161;SDS011;1087;50.226;8.682;2023-04-03T06:53:55;4.20;;;3.13;;
2161;SDS011;1087;50.226;8.682;2023-04-03T06:56:22;3.23;;;2.77;;
2161;SDS011;1087;50.226;8.682;2023-04-03T06:58:48;4.00;;;3.60;;
2161;SDS011;1087;50.226;8.682;2023-04-03T07:01:15;5.40;;;2.90;;
2161;SDS011;1087;50.226;8.682;2023-04-03T07:03:42;6.10;;;3.10;;
2161;SDS011;1087;50.226;8.682;2023-04-03T07:06:09;7.23;;;4.03;;
2161;SDS011;1087;50.226;8.682;2023-04-03T07:08:37;5.30;;;2.93;;
2161;SDS011;1087;50.226;8.682;2023-04-03T07:11:03;3.90;;;2.80;;
2161;SDS011;1087;50.226;8.682;2023-04-03T07:13:30;3.53;;;3.23;;
2161;SDS011;1087;50.226;8.682;2023-04-03T07:15:56;3.37;;;2.80;;
2161;SDS011;1087;50.226;8.682;2023-04-03T07:18:22;6.07;;;3.30;;
2161;SDS011;1087;50.226;8.682;2023-04-03T07:20:48;4.40;;;2.70;;
2161;SDS011;1087;50.226;8.682;2023-04-03T07:23:13;4.50;;;3.43;;
2161;SDS011;1087;50.226;8.682;2023-04-03T07:25:46;5.60;;;3.00;;
2161;SDS011;1087;50.226;8.682;2023-04-03T07:28:12;4.70;;;2.90;;
2161;SDS011;1087;50.226;8.682;2023-04-03T07:30:43;3.10;;;2.60;;
2161;SDS011;1087;50.226;8.682;2023-04-03T07:33:13;5.20;;;3.20;;
2161;SDS011;1087;50.226;8.682;2023-04-03T07:35:41;5.43;;;2.90;;
2161;SDS011;1087;50.226;8.682;2023-04-03T07:38:07;5.00;;;3.07;;
2161;SDS011;1087;50.226;8.682;2023-04-03T07:40:33;4.23;;;3.57;;
2161;SDS011;1087;50.226;8.682;2023-04-03T07:42:59;4.30;;;2.87;;
2161;SDS011;1087;50.226;8.682;2023-04-03T07:45:25;4.60;;;2.43;;
2161;SDS011;1087;50.226;8.682;2023-04-03T07:47:51;4.93;;;2.87;;
2161;SDS011;1087;50.226;8.682;2023-04-03T07:50:17;5.73;;;2.80;;
2161;SDS011;1087;50.226;8.682;2023-04-03T07:52:43;4.30;;;2.60;;
2161;SDS011;1087;50.226;8.682;2023-04-03T07:55:10;3.30;;;2.73;;
2161;SDS011;1087;50.226;8.682;2023-04-03T07:57:36;5.27;;;2.90;;
2161;SDS011;1087;50.226;8.682;2023-04-03T08:00:02;2.83;;;2.30;;
2161;SDS011;1087;50.226;8.682;2023-04-03T08:02:29;5.53;;;2.80;;
2161;SDS011;1087;50.226;8.682;2023-04-03T08:04:56;4.33;;;3.60;;
2161;SDS011;1087;50.226;8.682;2023-04-03T08:07:25;3.77;;;2.70;;
2161;SDS011;1087;50.226;8.682;2023-04-03T08:09:51;3.83;;;3.17;;
2161;SDS011;1087;50.226;8.682;2023-04-03T08:12:16;4.13;;;2.77;;
2161;SDS011;1087;50.226;8.682;2023-04-03T08:14:42;3.80;;;3.00;;
2161;SDS011;1087;50.226;8.682;2023-04-03T08:17:08;5.20;;;3.20;;
2161;SDS011;1087;50.226;8.682;2023-04-03T08:19:36;3.33;;;2.77;;
2161;SDS011;1087;50.226;8.682;2023-04-03T08:22:02;9.00;;;2.80;;
2161;SDS011;1087;50.226;8.682;2023-04-03T08:24:29;3.87;;;2.90;;
2161;SDS011;1087;50.226;8.682;2023-04-03T08:26:56;3.93;;;2.60;;
2161;SDS011;1087;50.226;8.682;2023-04-03T08:29:21;5.37;;;2.97;;
2161;SDS011;1087;50.226;8.682;2023-04-03T08:31:47;3.00;;;2.53;;
2161;SDS011;1087;50.226;8.682;2023-04-03T08:34:14;3.03;;;2.10;;
2161;SDS011;1087;50.226;8.682;2023-04-03T08:36:40;3.10;;;2.53;;
2161;SDS011;1087;50.226;8.682;2023-04-03T08:39:05;3.47;;;2.93;;
2161;SDS011;1087;50.226;8.682;2023-04-03T08:41:32;5.90;;;2.30;;
2161;SDS011;1087;50.226;8.682;2023-04-03T08:44:02;4.27;;;2.70;;
2161;SDS011;1087;50.226;8.682;2023-04-03T08:46:35;3.93;;;2.23;;
2161;SDS011;1087;50.226;8.682;2023-04-03T08:49:10;5.97;;;2.50;;
2161;SDS011;1087;50.226;8.682;2023-04-03T08:51:45;3.90;;;2.50;;
2161;SDS011;1087;50.226;8.682;2023-04-03T08:54:21;3.87;;;3.20;;
2161;SDS011;1087;50.226;8.682;2023-04-03T08:56:53;3.60;;;2.77;;
2161;SDS011;1087;50.226;8.682;2023-04-03T08:59:24;5.40;;;2.77;;
2161;SDS011;1087;50.226;8.682;2023-04-03T09:01:56;4.50;;;2.87;;
2161;SDS011;1087;50.226;8.682;2023-04-03T09:04:24;3.37;;;2.70;;
2161;SDS011;1087;50.226;8.682;2023-04-03T09:06:53;2.97;;;2.77;;
2161;SDS011;1087;50.226;8.682;2023-04-03T09:09:30;3.20;;;2.80;;
2161;SDS011;1087;50.226;8.682;2023-04-03T09:20:08;3.63;;;2.50;;
2161;SDS011;1087;50.226;8.682;2023-04-03T09:22:38;3.70;;;2.70;;
2161;SDS011;1087;50.226;8.682;2023-04-03T09:25:10;4.93;;;2.47;;
2161;SDS011;1087;50.226;8.682;2023-04-03T09:27:38;4.30;;;2.87;;
2161;SDS011;1087;50.226;8.682;2023-04-03T09:30:04;4.70;;;2.73;;
2161;SDS011;1087;50.226;8.682;2023-04-03T09:32:34;3.27;;;2.63;;
2161;SDS011;1087;50.226;8.682;2023-04-03T09:35:10;4.20;;;3.10;;
2161;SDS011;1087;50.226;8.682;2023-04-03T09:37:47;6.03;;;3.00;;
2161;SDS011;1087;50.226;8.682;2023-04-03T09:42:53;4.47;;;2.67;;
2161;SDS011;1087;50.226;8.682;2023-04-03T09:45:24;4.50;;;2.50;;
2161;SDS011;1087;50.226;8.682;2023-04-03T09:58:43;4.40;;;2.67;;
2161;SDS011;1087;50.226;8.682;2023-04-03T10:01:29;3.53;;;2.60;;
2161;SDS011;1087;50.226;8.682;2023-04-03T10:06:35;3.23;;;2.90;;
2161;SDS011;1087;50.226;8.682;2023-04-03T10:09:41;5.80;;;3.23;;
2161;SDS011;1087;50.226;8.682;2023-04-03T10:12:04;2.83;;;2.63;;
2161;SDS011;1087;50.226;8.682;2023-04-03T10:14:30;4.23;;;2.80;;
2161;SDS011;1087;50.226;8.682;2023-04-03T10:17:05;3.80;;;3.00;;
2161;SDS011;1087;50.226;8.682;2023-04-03T10:22:29;4.07;;;3.67;;
2161;SDS011;1087;50.226;8.682;2023-04-03T10:25:20;4.33;;;3.23;;
2161;SDS011;1087;50.226;8.682;2023-04-03T10:28:05;3.07;;;2.87;;
2161;SDS011;1087;50.226;8.682;2023-04-03T10:30:56;4.07;;;3.03;;
2161;SDS011;1087;50.226;8.682;2023-04-03T10:39:13;3.37;;;2.93;;
2161;SDS011;1087;50.226;8.682;2023-04-03T10:41:56;3.37;;;3.00;;
2161;SDS011;1087;50.226;8.682;2023-04-03T10:52:50;3.10;;;2.87;;
2161;SDS011;1087;50.226;8.682;2023-04-03T10:55:35;3.80;;;3.23;;
2161;SDS011;1087;50.226;8.682;2023-04-03T10:58:14;4.63;;;3.40;;
2161;SDS011;1087;50.226;8.682;2023-04-03T11:00:47;4.23;;;3.10;;
2161;SDS011;1087;50.226;8.682;2023-04-03T11:03:16;3.70;;;3.40;;
2161;SDS011;1087;50.226;8.682;2023-04-03T11:06:08;3.90;;;3.60;;
2161;SDS011;1087;50.226;8.682;2023-04-03T11:11:37;3.80;;;3.50;;
2161;SDS011;1087;50.226;8.682;2023-04-03T11:17:34;3.47;;;3.27;;
2161;SDS011;1087;50.226;8.682;2023-04-03T11:22:35;4.40;;;2.90;;
2161;SDS011;1087;50.226;8.682;2023-04-03T11:27:38;3.30;;;3.00;;
2161;SDS011;1087;50.226;8.682;2023-04-03T11:30:07;4.67;;;2.77;;
2161;SDS011;1087;50.226;8.682;2023-04-03T11:35:27;5.37;;;2.93;;
2161;SDS011;1087;50.226;8.682;2023-04-03T11:37:53;4.40;;;3.10;;
2161;SDS011;1087;50.226;8.682;2023-04-03T11:40:21;3.30;;;3.00;;
2161;SDS011;1087;50.226;8.682;2023-04-03T11:43:02;3.27;;;2.80;;
2161;SDS011;1087;50.226;8.682;2023-04-03T11:45:49;4.47;;;3.27;;
2161;SDS011;1087;50.226;8.682;2023-04-03T11:50:45;4.70;;;3.53;;
2161;SDS011;1087;50.226;8.682;2023-04-03T11:58:16;3.83;;;2.93;;
2161;SDS011;1087;50.226;8.682;2023-04-03T12:18:58;2.93;;;2.73;;
2161;SDS011;1087;50.226;8.682;2023-04-03T12:26:48;2.80;;;2.57;;
2161;SDS011;1087;50.226;8.682;2023-04-03T12:29:38;5.70;;;3.07;;
2161;SDS011;1087;50.226;8.682;2023-04-03T12:45:50;2.40;;;2.20;;
2161;SDS011;1087;50.226;8.682;2023-04-03T12:48:25;4.50;;;2.87;;
2161;SDS011;1087;50.226;8.682;2023-04-03T12:50:52;3.00;;;2.77;;
2161;SDS011;1087;50.226;8.682;2023-04-03T12:53:21;2.80;;;2.60;;
2161;SDS011;1087;50.226;8.682;2023-04-03T12:56:18;3.00;;;2.43;;
2161;SDS011;1087;50.226;8.682;2023-04-03T12:58:44;3.20;;;2.50;;
2161;SDS011;1087;50.226;8.682;2023-04-03T13:01:10;2.60;;;2.40;;
2161;SDS011;1087;50.226;8.682;2023-04-03T13:03:39;4.73;;;2.67;;
2161;SDS011;1087;50.226;8.682;2023-04-03T13:06:10;3.17;;;2.60;;
2161;SDS011;1087;50.226;8.682;2023-04-03T13:08:52;4.67;;;2.30;;
2161;SDS011;1087;50.226;8.682;2023-04-03T13:11:21;5.00;;;2.87;;
2161;SDS011;1087;50.226;8.682;2023-04-03T13:14:32;3.97;;;3.60;;
2161;SDS011;1087;50.226;8.682;2023-04-03T13:19:35;3.20;;;2.90;;
2161;SDS011;1087;50.226;8.682;2023-04-03T13:22:01;6.60;;;3.33;;
2161;SDS011;1087;50.226;8.682;2023-04-03T13:24:30;4.20;;;3.13;;
2161;SDS011;1087;50.226;8.682;2023-04-03T13:27:00;3.53;;;3.13;;
2161;SDS011;1087;50.226;8.682;2023-04-03T13:29:28;3.23;;;2.90;;
2161;SDS011;1087;50.226;8.682;2023-04-03T13:31:56;5.57;;;2.53;;
2161;SDS011;1087;50.226;8.682;2023-04-03T13:34:24;4.73;;;2.53;;
2161;SDS011;1087;50.226;8.682;2023-04-03T13:41:46;3.90;;;2.40;;
2161;SDS011;1087;50.226;8.682;2023-04-03T13:46:42;2.60;;;2.40;;
2161;SDS011;1087;50.226;8.682;2023-04-03T13:52:27;3.67;;;2.37;;
2161;SDS011;1087;50.226;8.682;2023-04-03T13:55:01;4.07;;;2.60;;
2161;SDS011;1087;50.226;8.682;2023-04-03T13:57:54;3.57;;;2.03;;
2161;SDS011;1087;50.226;8.682;2023-04-03T14:02:57;4.33;;;2.40;;
2161;SDS011;1087;50.226;8.682;2023-04-03T14:05:23;2.47;;;2.00;;
2161;SDS011;1087;50.226;8.682;2023-04-03T14:07:50;2.80;;;2.07;;
2161;SDS011;1087;50.226;8.682;2023-04-03T14:10:16;2.70;;;1.90;;
2161;SDS011;1087;50.226;8.682;2023-04-03T14:12:42;2.00;;;1.80;;
2161;SDS011;1087;50.226;8.682;2023-04-03T14:17:45;1.90;;;1.50;;
2161;SDS011;1087;50.226;8.682;2023-04-03T14:20:18;3.10;;;1.50;;
2161;SDS011;1087;50.226;8.682;2023-04-03T14:22:46;3.63;;;1.90;;
2161;SDS011;1087;50.226;8.682;2023-04-03T14:25:12;2.10;;;1.70;;
2161;SDS011;1087;50.226;8.682;2023-04-03T14:27:42;1.80;;;1.70;;
2161;SDS011;1087;50.226;8.682;2023-04-03T14:30:18;5.87;;;1.63;;
2161;SDS011;1087;50.226;8.682;2023-04-03T14:32:52;2.50;;;2.30;;
2161;SDS011;1087;50.226;8.682;2023-04-03T14:35:19;1.67;;;1.40;;
2161;SDS011;1087;50.226;8.682;2023-04-03T14:37:45;1.80;;;1.57;;
2161;SDS011;1087;50.226;8.682;2023-04-03T14:40:12;2.27;;;1.70;;
2161;SDS011;1087;50.226;8.682;2023-04-03T14:42:43;3.30;;;1.43;;
2161;SDS011;1087;50.226;8.682;2023-04-03T14:45:09;3.90;;;1.83;;
2161;SDS011;1087;50.226;8.682;2023-04-03T14:47:39;2.17;;;1.67;;
2161;SDS011;1087;50.226;8.682;2023-04-03T14:50:11;2.50;;;1.60;;
2161;SDS011;1087;50.226;8.682;2023-04-03T14:52:42;1.90;;;1.30;;
2161;SDS011;1087;50.226;8.682;2023-04-03T14:55:08;2.70;;;1.70;;
2161;SDS011;1087;50.226;8.682;2023-04-03T14:57:44;2.00;;;1.60;;
2161;SDS011;1087;50.226;8.682;2023-04-03T15:00:14;2.83;;;1.53;;
2161;SDS011;1087;50.226;8.682;2023-04-03T15:02:43;4.27;;;2.20;;
2161;SDS011;1087;50.226;8.682;2023-04-03T15:05:09;2.77;;;2.10;;
2161;SDS011;1087;50.226;8.682;2023-04-03T15:07:37;2.47;;;1.43;;
2161;SDS011;1087;50.226;8.682;2023-04-03T15:10:19;2.23;;;1.30;;
2161;SDS011;1087;50.226;8.682;2023-04-03T15:12:46;2.37;;;1.30;;
2161;SDS011;1087;50.226;8.682;2023-04-03T15:15:13;1.93;;;1.20;;
2161;SDS011;1087;50.226;8.682;2023-04-03T15:17:40;2.83;;;1.50;;
2161;SDS011;1087;50.226;8.682;2023-04-03T15:20:25;2.30;;;1.53;;
2161;SDS011;1087;50.226;8.682;2023-04-03T15:22:52;2.90;;;1.83;;
2161;SDS011;1087;50.226;8.682;2023-04-03T15:25:18;1.60;;;1.20;;
2161;SDS011;1087;50.226;8.682;2023-04-03T15:27:44;5.13;;;1.50;;
2161;SDS011;1087;50.226;8.682;2023-04-03T15:30:14;2.00;;;1.57;;
2161;SDS011;1087;50.226;8.682;2023-04-03T15:32:42;4.20;;;1.50;;
2161;SDS011;1087;50.226;8.682;2023-04-03T15:35:08;2.67;;;2.10;;
2161;SDS011;1087;50.226;8.682;2023-04-03T15:37:33;2.37;;;1.67;;
2161;SDS011;1087;50.226;8.682;2023-04-03T15:39:59;3.20;;;1.80;;
2161;SDS011;1087;50.226;8.682;2023-04-03T15:42:24;2.90;;;1.87;;
2161;SDS011;1087;50.226;8.682;2023-04-03T15:44:50;1.87;;;1.67;;
2161;SDS011;1087;50.226;8.682;2023-04-03T15:47:16;2.03;;;1.30;;
2161;SDS011;1087;50.226;8.682;2023-04-03T15:49:41;3.20;;;1.67;;
2161;SDS011;1087;50.226;8.682;2023-04-03T15:52:07;1.80;;;1.60;;
2161;SDS011;1087;50.226;8.682;2023-04-03T15:54:32;3.30;;;1.83;;
2161;SDS011;1087;50.226;8.682;2023-04-03T15:56:58;1.60;;;1.50;;
2161;SDS011;1087;50.226;8.682;2023-04-03T15:59:23;2.00;;;1.40;;
2161;SDS011;1087;50.226;8.682;2023-04-03T16:01:49;2.37;;;1.60;;
2161;SDS011;1087;50.226;8.682;2023-04-03T16:04:16;3.10;;;1.80;;
2161;SDS011;1087;50.226;8.682;2023-04-03T16:06:42;2.63;;;1.70;;
2161;SDS011;1087;50.226;8.682;2023-04-03T16:09:08;2.40;;;1.50;;
2161;SDS011;1087;50.226;8.682;2023-04-03T16:11:35;3.10;;;1.60;;
2161;SDS011;1087;50.226;8.682;2023-04-03T16:14:04;2.60;;;1.70;;
2161;SDS011;1087;50.226;8.682;2023-04-03T16:16:30;2.10;;;1.60;;
2161;SDS011;1087;50.226;8.682;2023-04-03T16:18:56;1.80;;;1.50;;
2161;SDS011;1087;50.226;8.682;2023-04-03T16:21:22;2.00;;;1.80;;
2161;SDS011;1087;50.226;8.682;2023-04-03T16:23:48;1.93;;;1.30;;
2161;SDS011;1087;50.226;8.682;2023-04-03T16:26:14;1.80;;;1.47;;
2161;SDS011;1087;50.226;8.682;2023-04-03T16:28:40;3.70;;;2.10;;
2161;SDS011;1087;50.226;8.682;2023-04-03T16:31:06;2.30;;;1.80;;
2161;SDS011;1087;50.226;8.682;2023-04-03T16:33:32;1.70;;;1.60;;
2161;SDS011;1087;50.226;8.682;2023-04-03T16:35:58;2.57;;;1.40;;
2161;SDS011;1087;50.226;8.682;2023-04-03T16:38:24;1.73;;;1.40;;
2161;SDS011;1087;50.226;8.682;2023-04-03T16:40:50;3.93;;;1.53;;
2161;SDS011;1087;50.226;8.682;2023-04-03T16:43:17;1.70;;;1.60;;
2161;SDS011;1087;50.226;8.682;2023-04-03T16:45:42;4.83;;;2.07;;
2161;SDS011;1087;50.226;8.682;2023-04-03T16:48:08;2.87;;;1.90;;
2161;SDS011;1087;50.226;8.682;2023-04-03T16:50:34;2.50;;;1.70;;
2161;SDS011;1087;50.226;8.682;2023-04-03T16:52:59;2.33;;;1.73;;
2161;SDS011;1087;50.226;8.682;2023-04-03T16:55:27;2.27;;;1.70;;
2161;SDS011;1087;50.226;8.682;2023-04-03T16:57:53;3.73;;;1.70;;
2161;SDS011;1087;50.226;8.682;2023-04-03T17:00:19;3.27;;;1.73;;
2161;SDS011;1087;50.226;8.682;2023-04-03T17:02:45;2.73;;;2.10;;
2161;SDS011;1087;50.226;8.682;2023-04-03T17:05:10;1.90;;;1.70;;
2161;SDS011;1087;50.226;8.682;2023-04-03T17:07:36;1.87;;;1.50;;
2161;SDS011;1087;50.226;8.682;2023-04-03T17:10:01;2.13;;;1.93;;
2161;SDS011;1087;50.226;8.682;2023-04-03T17:12:27;2.53;;;2.13;;
2161;SDS011;1087;50.226;8.682;2023-04-03T17:14:53;3.73;;;1.90;;
2161;SDS011;1087;50.226;8.682;2023-04-03T17:17:20;2.20;;;2.00;;
2161;SDS011;1087;50.226;8.682;2023-04-03T17:19:48;4.10;;;1.93;;
2161;SDS011;1087;50.226;8.682;2023-04-03T17:22:14;3.40;;;2.30;;
2161;SDS011;1087;50.226;8.682;2023-04-03T17:24:41;5.63;;;2.00;;
2161;SDS011;1087;50.226;8.682;2023-04-03T17:27:06;3.00;;;2.53;;